createdAt,value
2022-12-23T08:33:12.613Z,1001.11
2022-12-23T08:34:12.580Z,1001.10
2022-12-23T08:35:12.559Z,1001.10
2022-12-23T08:36:16.115Z,1001.07
2022-12-23T08:37:13.533Z,1001.06
2022-12-23T08:38:12.546Z,1001.06
2022-12-23T08:39:12.521Z,1001.08
2022-12-23T08:40:12.509Z,1001.04
2022-12-23T08:41:12.490Z,1001.04
2022-12-23T08:42:12.487Z,1001.02
2022-12-23T08:43:12.467Z,1001.01
2022-12-23T08:44:12.484Z,1001.08
2022-12-23T08:45:12.446Z,1001.09
2022-12-23T08:46:12.489Z,1001.03
2022-12-23T08:47:12.421Z,1001.02
2022-12-23T08:48:12.411Z,1001.04
2022-12-23T08:49:12.440Z,1001.04
2022-12-23T08:50:12.400Z,1001.03
2022-12-23T08:51:12.392Z,1001.02
2022-12-23T08:52:12.364Z,1001.03
2022-12-23T08:53:12.371Z,1001.07
2022-12-23T08:54:12.372Z,1001.08
2022-12-23T08:55:12.343Z,1001.09
2022-12-23T08:56:12.335Z,1001.05
2022-12-23T08:57:12.329Z,1001.02
2022-12-23T08:58:12.304Z,1000.99
2022-12-23T08:59:18.306Z,1001.05
2022-12-23T09:00:13.288Z,1001.07
2022-12-23T09:01:12.302Z,1001.09
2022-12-23T09:02:12.459Z,1001.06
2022-12-23T09:03:12.438Z,1001.05
2022-12-23T09:04:12.254Z,1001.04
2022-12-23T09:05:12.251Z,1001.10
2022-12-23T09:06:12.207Z,1001.13
2022-12-23T09:07:12.195Z,1001.18
2022-12-23T09:08:12.181Z,1001.24
2022-12-23T09:09:12.189Z,1001.23
2022-12-23T09:10:12.181Z,1001.26
2022-12-23T09:11:12.154Z,1001.29
2022-12-23T09:12:12.135Z,1001.30
2022-12-23T09:13:16.292Z,1001.26
2022-12-23T09:14:13.150Z,1001.28
2022-12-23T09:15:12.113Z,1001.16
2022-12-23T09:16:12.143Z,1001.18
2022-12-23T09:17:12.091Z,1001.17
2022-12-23T09:18:12.078Z,1001.19
2022-12-23T09:19:12.090Z,1001.14
2022-12-23T09:20:12.052Z,1001.19
2022-12-23T09:21:12.109Z,1001.20
2022-12-23T09:22:12.038Z,1001.15
2022-12-23T09:23:12.013Z,1001.15
2022-12-23T09:24:12.012Z,1001.11
2022-12-23T09:25:12.000Z,1001.00
2022-12-23T09:26:11.982Z,1001.00
2022-12-23T09:27:11.977Z,1001.01
2022-12-23T09:28:11.973Z,1001.03
2022-12-23T09:29:11.957Z,1001.01
2022-12-23T09:30:11.931Z,1000.98
2022-12-23T09:31:11.997Z,1000.98
2022-12-23T09:32:11.910Z,1000.94
2022-12-23T09:33:11.913Z,1000.93
2022-12-23T09:34:11.912Z,1000.91
2022-12-23T09:35:11.890Z,1000.90
2022-12-23T09:36:11.864Z,1000.90
2022-12-23T09:37:11.883Z,1000.95
2022-12-23T09:38:11.856Z,1000.89
2022-12-23T09:39:11.836Z,1000.88
2022-12-23T09:40:11.834Z,1000.83
2022-12-23T09:41:12.814Z,1000.77
2022-12-23T09:42:11.812Z,1000.70
2022-12-23T09:43:11.781Z,1000.69
2022-12-23T09:44:11.797Z,1000.62
2022-12-23T09:45:11.798Z,1000.62
2022-12-23T09:46:11.823Z,1000.63
2022-12-23T09:47:11.733Z,1000.67
2022-12-23T09:48:11.743Z,1000.65
2022-12-23T09:49:11.716Z,1000.62
2022-12-23T09:50:11.730Z,1000.58
2022-12-23T09:51:11.693Z,1000.56
2022-12-23T09:52:11.679Z,1000.56
2022-12-23T09:53:11.719Z,1000.54
2022-12-23T09:54:16.686Z,1000.56
2022-12-23T09:55:12.670Z,1000.58
2022-12-23T09:56:11.647Z,1000.57
2022-12-23T09:57:11.639Z,1000.57
2022-12-23T09:58:11.616Z,1000.52
2022-12-23T09:59:11.601Z,1000.53
2022-12-23T10:00:11.620Z,1000.52
2022-12-23T10:01:15.110Z,1000.52
2022-12-23T10:02:11.775Z,1000.54
2022-12-23T10:03:12.043Z,1000.49
2022-12-23T10:04:11.638Z,1000.46
2022-12-23T10:05:11.569Z,1000.46
2022-12-23T10:06:11.536Z,1000.46
2022-12-23T10:07:11.524Z,1000.46
2022-12-23T10:08:11.520Z,1000.47
2022-12-23T10:09:11.557Z,1000.48
2022-12-23T10:10:11.505Z,1000.46
2022-12-23T10:11:11.481Z,1000.46
2022-12-23T10:12:11.487Z,1000.45
2022-12-23T10:13:11.442Z,1000.42
2022-12-23T10:14:11.434Z,1000.40
2022-12-23T10:15:11.441Z,1000.32
2022-12-23T10:16:11.490Z,1000.27
2022-12-23T10:17:11.405Z,1000.23
2022-12-23T10:18:11.390Z,1000.22
2022-12-23T10:19:11.376Z,1000.21
2022-12-23T10:20:11.380Z,1000.18
2022-12-23T10:21:11.375Z,1000.17
2022-12-23T10:22:11.376Z,1000.15
2022-12-23T10:23:12.362Z,1000.10
2022-12-23T10:24:11.333Z,1000.04
2022-12-23T10:25:11.341Z,1000.04
2022-12-23T10:26:11.334Z,1000.00
2022-12-23T10:27:11.282Z,999.98
2022-12-23T10:28:11.273Z,999.91
2022-12-23T10:29:15.435Z,999.90
2022-12-23T10:30:41.989Z,1000.00
2022-12-23T10:31:40.952Z,1000.00
2022-12-23T10:32:12.339Z,1000.03
2022-12-23T10:33:11.236Z,999.93
2022-12-23T10:34:11.217Z,999.97
2022-12-23T10:35:11.209Z,999.87
2022-12-23T10:36:11.299Z,999.83
2022-12-23T10:37:11.312Z,999.81
2022-12-23T10:38:11.166Z,999.75
2022-12-23T10:39:11.182Z,999.76
2022-12-23T10:40:11.153Z,999.70
2022-12-23T10:41:11.245Z,999.72
2022-12-23T10:42:11.150Z,999.68
2022-12-23T10:43:11.097Z,999.69
2022-12-23T10:44:11.099Z,999.64
2022-12-23T10:45:11.089Z,999.67
2022-12-23T10:46:11.136Z,999.64
2022-12-23T10:47:11.235Z,999.58
2022-12-23T10:48:14.195Z,999.56
2022-12-23T10:49:11.052Z,999.57
2022-12-23T10:50:11.052Z,999.59
2022-12-23T10:51:11.007Z,999.59
2022-12-23T10:52:11.036Z,999.56
2022-12-23T10:53:10.998Z,999.56
2022-12-23T10:54:10.979Z,999.51
2022-12-23T10:55:10.976Z,999.46
2022-12-23T10:56:10.968Z,999.48
2022-12-23T10:57:10.976Z,999.50
2022-12-23T10:58:10.974Z,999.47
2022-12-23T10:59:10.934Z,999.48
2022-12-23T11:00:10.941Z,999.50
2022-12-23T11:01:16.404Z,999.48
2022-12-23T11:02:12.164Z,999.45
2022-12-23T11:03:11.090Z,999.40
2022-12-23T11:04:11.876Z,999.38
2022-12-23T11:05:10.873Z,999.33
2022-12-23T11:06:10.857Z,999.36
2022-12-23T11:07:42.686Z,999.30
2022-12-23T11:08:11.830Z,999.33
2022-12-23T11:09:10.804Z,999.33
2022-12-23T11:10:10.813Z,999.36
2022-12-23T11:11:10.781Z,999.38
2022-12-23T11:12:10.792Z,999.40
2022-12-23T11:13:10.796Z,999.36
2022-12-23T11:14:10.779Z,999.35
2022-12-23T11:15:10.759Z,999.31
2022-12-23T11:16:10.810Z,999.29
2022-12-23T11:17:10.735Z,999.32
2022-12-23T11:18:10.751Z,999.29
2022-12-23T11:19:10.721Z,999.24
2022-12-23T11:20:10.707Z,999.26
2022-12-23T11:21:10.687Z,999.25
2022-12-23T11:22:10.672Z,999.24
2022-12-23T11:23:10.648Z,999.23
2022-12-23T11:24:10.676Z,999.22
2022-12-23T11:25:10.635Z,999.18
2022-12-23T11:26:10.632Z,999.19
2022-12-23T11:27:10.601Z,999.15
2022-12-23T11:28:10.677Z,999.11
2022-12-23T11:29:10.602Z,999.09
2022-12-23T11:30:10.604Z,999.08
2022-12-23T11:31:10.677Z,999.01
2022-12-23T11:32:10.626Z,999.01
2022-12-23T11:33:10.547Z,998.96
2022-12-23T11:34:10.526Z,998.93
2022-12-23T11:35:10.576Z,998.89
2022-12-23T11:36:10.522Z,998.91
2022-12-23T11:37:10.995Z,998.94
2022-12-23T11:38:10.519Z,998.94
2022-12-23T11:39:10.495Z,998.96
2022-12-23T11:40:10.496Z,998.95
2022-12-23T11:41:10.456Z,998.89
2022-12-23T11:42:10.472Z,998.86
2022-12-23T11:43:10.452Z,998.84
2022-12-23T11:44:10.438Z,998.78
2022-12-23T11:45:10.432Z,998.73
2022-12-23T11:46:10.453Z,998.71
2022-12-23T11:47:10.425Z,998.71
2022-12-23T11:48:11.366Z,998.70
2022-12-23T11:49:10.356Z,998.66
2022-12-23T11:50:10.382Z,998.66
2022-12-23T11:51:10.326Z,998.59
2022-12-23T11:52:10.343Z,998.51
2022-12-23T11:53:10.332Z,998.52
2022-12-23T11:54:10.313Z,998.45
2022-12-23T11:55:10.309Z,998.38
2022-12-23T11:56:10.362Z,998.32
2022-12-23T11:57:10.391Z,998.28
2022-12-23T11:58:10.265Z,998.23
2022-12-23T11:59:10.246Z,998.22
2022-12-23T12:00:10.258Z,998.18
2022-12-23T12:01:11.236Z,998.16
2022-12-23T12:02:10.234Z,998.15
2022-12-23T12:03:10.241Z,998.15
2022-12-23T12:04:10.269Z,998.12
2022-12-23T12:05:10.200Z,998.08
2022-12-23T12:06:10.171Z,998.08
2022-12-23T12:07:10.163Z,998.06
2022-12-23T12:08:10.157Z,997.98
2022-12-23T12:09:10.135Z,997.98
2022-12-23T12:10:10.134Z,997.94
2022-12-23T12:11:10.114Z,997.88
2022-12-23T12:12:10.099Z,997.89
2022-12-23T12:13:10.163Z,997.85
2022-12-23T12:14:10.068Z,997.79
2022-12-23T12:15:10.065Z,997.75
2022-12-23T12:16:10.132Z,997.73
2022-12-23T12:17:10.139Z,997.64
2022-12-23T12:18:10.028Z,997.66
2022-12-23T12:19:10.008Z,997.64
2022-12-23T12:20:10.039Z,997.61
2022-12-23T12:21:10.029Z,997.61
2022-12-23T12:22:09.998Z,997.64
2022-12-23T12:23:19.209Z,997.69
2022-12-23T12:24:19.247Z,997.62
2022-12-23T12:25:10.938Z,997.55
2022-12-23T12:26:09.952Z,997.55
2022-12-23T12:27:09.936Z,997.55
2022-12-23T12:28:09.947Z,997.54
2022-12-23T12:29:09.906Z,997.59
2022-12-23T12:30:09.899Z,997.60
2022-12-23T12:31:10.005Z,997.59
2022-12-23T12:32:09.877Z,997.56
2022-12-23T12:33:09.865Z,997.54
2022-12-23T12:34:09.836Z,997.49
2022-12-23T12:35:09.824Z,997.47
2022-12-23T12:36:09.898Z,997.39
2022-12-23T12:37:09.827Z,997.37
2022-12-23T12:38:09.796Z,997.36
2022-12-23T12:39:09.817Z,997.31
2022-12-23T12:40:09.886Z,997.31
2022-12-23T12:41:09.773Z,997.27
2022-12-23T12:42:10.806Z,997.25
2022-12-23T12:43:09.748Z,997.26
2022-12-23T12:44:09.742Z,997.23
2022-12-23T12:45:09.736Z,997.17
2022-12-23T12:46:09.767Z,997.18
2022-12-23T12:47:28.558Z,997.16
2022-12-23T12:48:18.169Z,997.14
2022-12-23T12:49:10.690Z,997.13
2022-12-23T12:50:09.727Z,997.16
2022-12-23T12:51:09.652Z,997.09
2022-12-23T12:52:09.634Z,997.12
2022-12-23T12:53:09.726Z,997.07
2022-12-23T12:54:09.624Z,997.00
2022-12-23T12:55:09.609Z,996.97
2022-12-23T12:56:09.590Z,996.91
2022-12-23T12:57:09.576Z,996.80
2022-12-23T12:58:09.582Z,996.65
2022-12-23T12:59:09.563Z,996.60
2022-12-23T13:00:09.544Z,996.61
2022-12-23T13:01:09.572Z,996.59
2022-12-23T13:02:09.627Z,996.50
2022-12-23T13:03:09.534Z,996.38
2022-12-23T13:04:10.511Z,996.31
2022-12-23T13:05:09.525Z,996.24
2022-12-23T13:06:09.492Z,996.22
2022-12-23T13:07:09.472Z,996.30
2022-12-23T13:08:09.466Z,996.35
2022-12-23T13:09:10.452Z,996.50
2022-12-23T13:10:09.428Z,996.51
2022-12-23T13:11:09.425Z,996.67
2022-12-23T13:12:09.426Z,996.81
2022-12-23T13:13:09.392Z,996.99
2022-12-23T13:14:09.408Z,997.08
2022-12-23T13:15:09.381Z,997.12
2022-12-23T13:16:09.358Z,997.00
2022-12-23T13:17:09.403Z,996.76
2022-12-23T13:18:09.357Z,996.59
2022-12-23T13:19:24.638Z,996.47
2022-12-23T13:20:09.327Z,996.46
2022-12-23T13:21:09.339Z,996.38
2022-12-23T13:22:09.292Z,996.31
2022-12-23T13:23:34.278Z,996.37
2022-12-23T13:24:10.289Z,996.56
2022-12-23T13:25:09.274Z,996.60
2022-12-23T13:26:09.257Z,996.45
2022-12-23T13:27:09.228Z,996.25
2022-12-23T13:28:09.224Z,996.18
2022-12-23T13:29:09.228Z,996.24
2022-12-23T13:30:09.243Z,996.29
2022-12-23T13:31:09.255Z,996.28
2022-12-23T13:32:09.187Z,996.25
2022-12-23T13:33:09.183Z,996.15
2022-12-23T13:34:09.158Z,996.08
2022-12-23T13:35:09.180Z,996.19
2022-12-23T13:36:09.203Z,996.11
2022-12-23T13:37:09.151Z,996.09
2022-12-23T13:38:09.116Z,996.08
2022-12-23T13:39:09.099Z,996.10
2022-12-23T13:40:09.104Z,996.10
2022-12-23T13:41:09.099Z,996.09
2022-12-23T13:42:09.072Z,996.03
2022-12-23T13:43:09.057Z,995.95
2022-12-23T13:44:09.035Z,995.91
2022-12-23T13:45:09.046Z,995.86
2022-12-23T13:46:09.082Z,995.88
2022-12-23T13:47:09.014Z,995.81
2022-12-23T13:48:09.007Z,995.78
2022-12-23T13:49:08.983Z,995.77
2022-12-23T13:50:08.982Z,995.81
2022-12-23T13:51:09.004Z,995.78
2022-12-23T13:52:08.953Z,995.75
2022-12-23T13:53:09.053Z,995.70
2022-12-23T13:54:08.919Z,995.65
2022-12-23T13:55:08.921Z,995.63
2022-12-23T13:56:08.928Z,995.60
2022-12-23T13:57:08.891Z,995.62
2022-12-23T13:58:08.888Z,995.61
2022-12-23T13:59:08.869Z,995.59
2022-12-23T14:00:08.865Z,995.60
2022-12-23T14:01:08.932Z,995.56
2022-12-23T14:02:09.045Z,995.57
2022-12-23T14:03:08.871Z,995.52
2022-12-23T14:04:08.821Z,995.51
2022-12-23T14:05:14.696Z,995.54
2022-12-23T14:06:09.800Z,995.57
2022-12-23T14:07:08.803Z,995.54
2022-12-23T14:08:08.794Z,995.47
2022-12-23T14:09:08.795Z,995.46
2022-12-23T14:10:08.740Z,995.44
2022-12-23T14:11:08.732Z,995.46
2022-12-23T14:12:08.746Z,995.39
2022-12-23T14:13:08.744Z,995.27
2022-12-23T14:14:08.693Z,995.22
2022-12-23T14:15:08.710Z,995.19
2022-12-23T14:16:08.764Z,995.11
2022-12-23T14:17:08.712Z,995.20
2022-12-23T14:18:08.753Z,995.24
2022-12-23T14:19:08.657Z,995.32
2022-12-23T14:20:08.649Z,995.29
2022-12-23T14:21:08.636Z,995.31
2022-12-23T14:22:08.637Z,995.29
2022-12-23T14:23:08.595Z,995.21
2022-12-23T14:24:08.592Z,995.23
2022-12-23T14:25:08.598Z,995.30
2022-12-23T14:26:08.586Z,995.35
2022-12-23T14:27:08.551Z,995.41
2022-12-23T14:28:08.594Z,995.40
2022-12-23T14:29:08.547Z,995.37
2022-12-23T14:30:08.586Z,995.21
2022-12-23T14:31:08.634Z,995.14
2022-12-23T14:32:08.513Z,995.09
2022-12-23T14:33:08.513Z,995.05
2022-12-23T14:34:08.500Z,995.01
2022-12-23T14:35:08.520Z,995.01
2022-12-23T14:36:08.471Z,994.90
2022-12-23T14:37:08.440Z,994.92
2022-12-23T14:38:08.447Z,994.93
2022-12-23T14:39:08.468Z,994.91
2022-12-23T14:40:08.412Z,995.03
2022-12-23T14:41:08.434Z,995.09
2022-12-23T14:42:13.321Z,995.18
2022-12-23T14:43:09.406Z,995.27
2022-12-23T14:44:08.377Z,995.27
2022-12-23T14:45:08.342Z,995.26
2022-12-23T14:46:08.399Z,995.29
2022-12-23T14:47:08.346Z,995.30
2022-12-23T14:48:08.307Z,995.31
2022-12-23T14:49:37.589Z,995.28
2022-12-23T14:50:09.307Z,995.19
2022-12-23T14:51:08.317Z,995.17
2022-12-23T14:52:08.270Z,995.20
2022-12-23T14:53:08.256Z,995.12
2022-12-23T14:54:08.266Z,995.12
2022-12-23T14:55:29.616Z,995.12
2022-12-23T14:56:09.231Z,995.18
2022-12-23T14:57:08.244Z,995.19
2022-12-23T14:58:08.232Z,995.14
2022-12-23T14:59:08.224Z,995.20
2022-12-23T15:00:08.193Z,995.18
2022-12-23T15:01:08.186Z,995.07
2022-12-23T15:02:08.278Z,995.15
2022-12-23T15:03:08.274Z,995.13
2022-12-23T15:04:08.140Z,995.10
2022-12-23T15:05:08.143Z,995.18
2022-12-23T15:06:08.125Z,995.16
2022-12-23T15:07:08.093Z,995.17
2022-12-23T15:08:08.093Z,995.14
2022-12-23T15:09:08.077Z,995.09
2022-12-23T15:10:08.098Z,995.11
2022-12-23T15:11:08.051Z,995.08
2022-12-23T15:12:08.060Z,995.01
2022-12-23T15:13:08.682Z,994.99
2022-12-23T15:14:08.058Z,995.03
2022-12-23T15:15:08.018Z,995.05
2022-12-23T15:16:08.106Z,995.10
2022-12-23T15:17:07.992Z,995.11
2022-12-23T15:18:07.968Z,995.09
2022-12-23T15:19:07.956Z,995.07
2022-12-23T15:20:07.947Z,995.09
2022-12-23T15:21:07.959Z,995.07
2022-12-23T15:22:20.768Z,995.09
2022-12-23T15:23:08.909Z,995.10
2022-12-23T15:24:07.896Z,995.16
2022-12-23T15:25:07.888Z,995.14
2022-12-23T15:26:07.911Z,995.15
2022-12-23T15:27:26.619Z,995.14
2022-12-23T15:28:08.850Z,995.15
